Time;durP1;ratioP1;P1;durP2;ratioP2;P2;SDS_P1;SDS_P2;PMS_P1;PMS_P2;Temp;Humidity;BMP_temperature;BMP_pressure;BME280_temperature;BME280_humidity;BME280_pressure;Samples;Min_cycle;Max_cycle;Signal;HPM_P1;HPM_P2
2024/01/24 00:01:08;;;;;;;2.93;0.87;;;;;;;9.20;100.00;98920.44;5036758;28;20190;-72
2024/01/24 00:03:39;;;;;;;4.07;1.20;;;;;;;9.27;100.00;98931.06;5036853;28;20229;-72
2024/01/24 00:06:08;;;;;;;2.97;1.20;;;;;;;9.44;100.00;98935.97;5036724;28;20557;-72
2024/01/24 00:08:35;;;;;;;3.90;1.07;;;;;;;9.42;100.00;98929.19;5036663;28;20206;-72
2024/01/24 00:11:10;;;;;;;4.03;1.00;;;;;;;9.26;100.00;98919.66;5036592;28;20202;-72
2024/01/24 00:13:43;;;;;;;3.03;0.90;;;;;;;9.41;100.00;98914.28;5036354;28;20224;-72
2024/01/24 00:16:11;;;;;;;3.53;1.30;;;;;;;9.46;100.00;98903.94;5036546;28;20355;-72
2024/01/24 00:18:37;;;;;;;4.53;1.20;;;;;;;9.43;100.00;98909.59;5036366;28;20213;-72
2024/01/24 00:21:04;;;;;;;8.27;1.50;;;;;;;9.42;100.00;98892.84;5036676;28;20209;-72
2024/01/24 00:23:30;;;;;;;6.27;1.40;;;;;;;9.53;100.00;98888.84;5036205;28;20711;-72
2024/01/24 00:25:56;;;;;;;5.13;1.17;;;;;;;9.41;100.00;98877.94;5036365;28;20218;-72
2024/01/24 00:28:26;;;;;;;4.80;1.37;;;;;;;9.74;100.00;98889.63;5036578;28;20232;-72
2024/01/24 00:30:52;;;;;;;3.20;1.03;;;;;;;9.60;100.00;98876.47;5036542;28;20264;-72
2024/01/24 00:33:19;;;;;;;3.33;1.43;;;;;;;9.54;100.00;98879.88;5036396;28;20233;-72
2024/01/24 00:35:45;;;;;;;3.43;1.30;;;;;;;9.64;100.00;98885.69;5036256;28;20222;-72
2024/01/24 00:38:11;;;;;;;3.73;1.33;;;;;;;9.65;100.00;98850.16;5036368;28;20205;-72
2024/01/24 00:40:38;;;;;;;3.20;1.10;;;;;;;9.57;100.00;98850.31;5036331;28;20206;-72
2024/01/24 00:43:06;;;;;;;3.53;0.90;;;;;;;9.55;100.00;98857.66;5036140;28;20240;-72
2024/01/24 00:45:32;;;;;;;5.03;1.10;;;;;;;9.70;100.00;98853.88;5036285;28;20210;-72
2024/01/24 00:47:59;;;;;;;5.27;1.20;;;;;;;9.56;100.00;98852.13;5036205;28;20212;-72
2024/01/24 00:50:25;;;;;;;5.80;1.00;;;;;;;9.64;100.00;98864.47;5036020;28;20202;-72
2024/01/24 00:52:53;;;;;;;3.93;1.10;;;;;;;9.66;100.00;98855.28;5036004;28;20225;-72
2024/01/24 00:55:20;;;;;;;4.77;0.87;;;;;;;9.75;100.00;98867.41;5036012;28;20217;-72
2024/01/24 00:57:46;;;;;;;2.70;1.17;;;;;;;9.66;100.00;98870.38;5035713;28;20206;-72
2024/01/24 01:00:13;;;;;;;3.70;1.03;;;;;;;9.61;100.00;98865.66;5035865;28;20206;-72
2024/01/24 01:02:40;;;;;;;2.87;1.00;;;;;;;9.71;100.00;98866.13;5035692;28;20288;-72
2024/01/24 01:05:07;;;;;;;5.00;1.13;;;;;;;9.64;100.00;98859.16;5035465;28;20568;-72
2024/01/24 01:07:33;;;;;;;3.97;1.30;;;;;;;9.52;100.00;98866.00;5035815;28;20229;-72
2024/01/24 01:09:59;;;;;;;3.97;1.30;;;;;;;9.43;100.00;98859.19;5035339;28;20573;-72
2024/01/24 01:12:26;;;;;;;2.87;1.13;;;;;;;9.41;100.00;98863.88;5035623;28;20217;-72
2024/01/24 01:14:52;;;;;;;4.40;1.17;;;;;;;9.63;100.00;98855.66;5035690;28;20212;-72
2024/01/24 01:17:18;;;;;;;3.73;1.10;;;;;;;9.64;100.00;98846.66;5035628;28;20206;-73
2024/01/24 01:19:45;;;;;;;4.13;1.60;;;;;;;9.62;100.00;98851.38;5035593;28;20206;-73
2024/01/24 01:22:11;;;;;;;4.53;1.37;;;;;;;9.64;100.00;98828.09;5035379;28;20228;-72
2024/01/24 01:24:37;;;;;;;5.13;1.23;;;;;;;9.75;100.00;98840.00;5035317;28;20213;-72
2024/01/24 01:27:04;;;;;;;2.67;1.10;;;;;;;9.74;100.00;98835.72;5036017;28;20194;-72
2024/01/24 01:29:30;;;;;;;3.20;1.07;;;;;;;9.69;100.00;98832.84;5035296;28;20206;-72
2024/01/24 01:31:57;;;;;;;4.40;1.00;;;;;;;9.81;100.00;98828.59;5035281;28;20210;-72
2024/01/24 01:34:23;;;;;;;5.40;1.40;;;;;;;9.76;100.00;98823.88;5035194;28;20198;-72
2024/01/24 01:36:49;;;;;;;3.80;1.40;;;;;;;9.79;100.00;98833.31;5035179;28;20221;-72
2024/01/24 01:39:16;;;;;;;3.57;1.20;;;;;;;9.85;100.00;98832.50;5035150;28;20217;-72
2024/01/24 01:41:46;;;;;;;3.13;1.10;;;;;;;9.68;100.00;98834.66;5034874;28;20210;-72
2024/01/24 01:44:14;;;;;;;3.07;1.13;;;;;;;9.64;100.00;98837.91;5035098;28;20309;-72
2024/01/24 01:46:41;;;;;;;2.90;1.00;;;;;;;9.65;100.00;98826.25;5034766;28;20664;-72
2024/01/24 01:49:08;;;;;;;4.67;1.27;;;;;;;9.78;100.00;98832.47;5035053;28;20206;-72
2024/01/24 01:51:35;;;;;;;3.93;1.20;;;;;;;9.65;100.00;98829.72;5034699;28;20212;-72
2024/01/24 01:54:02;;;;;;;3.53;1.30;;;;;;;9.57;100.00;98837.03;5034832;28;20244;-72
2024/01/24 01:56:29;;;;;;;3.50;1.40;;;;;;;9.61;100.00;98838.28;5034978;28;20212;-72
2024/01/24 01:58:57;;;;;;;3.30;1.00;;;;;;;9.54;100.00;98838.22;5034855;28;20213;-72
2024/01/24 02:01:24;;;;;;;4.23;0.87;;;;;;;9.67;100.00;98838.34;5034507;28;20210;-72
2024/01/24 02:03:51;;;;;;;2.57;1.20;;;;;;;9.80;100.00;98833.13;5034576;28;20230;-72
2024/01/24 02:06:17;;;;;;;4.00;1.13;;;;;;;9.72;100.00;98835.91;5034742;28;20298;-72
2024/01/24 02:08:44;;;;;;;5.30;1.20;;;;;;;9.86;100.00;98836.84;5034681;28;20206;-72
2024/01/24 02:11:12;;;;;;;2.17;0.87;;;;;;;9.81;100.00;98841.88;5034658;28;20201;-72
2024/01/24 02:13:38;;;;;;;5.23;1.20;;;;;;;9.82;100.00;98832.91;5034554;28;20225;-72
2024/01/24 02:16:05;;;;;;;2.30;1.00;;;;;;;9.86;100.00;98831.53;5033585;28;20301;-72
2024/01/24 02:18:32;;;;;;;3.30;1.10;;;;;;;9.80;100.00;98808.38;5034555;28;20571;-72
2024/01/24 02:20:58;;;;;;;4.40;1.20;;;;;;;9.65;100.00;98813.00;5034226;28;20288;-72
2024/01/24 02:23:26;;;;;;;3.07;0.90;;;;;;;9.61;100.00;98803.78;5034222;28;20240;-72
2024/01/24 02:25:53;;;;;;;2.63;1.10;;;;;;;9.73;100.00;98805.69;5034067;28;20309;-72
2024/01/24 02:28:20;;;;;;;3.43;0.93;;;;;;;9.65;100.00;98797.06;5034360;28;20213;-72
2024/01/24 02:30:47;;;;;;;3.33;1.03;;;;;;;9.60;100.00;98808.25;5034266;28;20210;-72
2024/01/24 02:33:14;;;;;;;3.10;0.90;;;;;;;9.62;100.00;98808.91;5034160;28;20217;-72
2024/01/24 02:35:40;;;;;;;3.27;0.90;;;;;;;9.47;100.00;98808.19;5034237;28;20406;-72
2024/01/24 02:38:06;;;;;;;4.17;0.90;;;;;;;9.53;100.00;98788.00;5033812;28;20206;-72
2024/01/24 02:40:33;;;;;;;2.20;0.93;;;;;;;9.48;100.00;98785.09;5033761;28;20666;-72
2024/01/24 02:42:59;;;;;;;2.70;1.20;;;;;;;9.47;100.00;98786.97;5033532;28;20608;-72
2024/01/24 02:45:25;;;;;;;3.77;0.80;;;;;;;9.49;100.00;98784.91;5034024;28;20212;-72
2024/01/24 02:47:52;;;;;;;4.23;1.13;;;;;;;9.46;100.00;98776.53;5033681;28;20217;-72
2024/01/24 02:50:18;;;;;;;4.03;1.20;;;;;;;9.40;100.00;98787.91;5033591;28;20687;-72
2024/01/24 02:52:45;;;;;;;2.37;0.80;;;;;;;9.31;100.00;98784.59;5034249;28;20226;-72
2024/01/24 02:55:14;;;;;;;6.50;1.10;;;;;;;9.43;100.00;98771.59;5033869;28;20232;-72
2024/01/24 02:57:41;;;;;;;3.73;0.83;;;;;;;9.41;100.00;98771.78;5033550;28;20210;-72
2024/01/24 03:00:08;;;;;;;3.50;0.87;;;;;;;9.42;100.00;98762.00;5033502;28;20688;-72
2024/01/24 03:02:35;;;;;;;2.07;0.80;;;;;;;9.35;100.00;98754.00;5033367;28;20237;-72
2024/01/24 03:05:00;;;;;;;2.53;0.87;;;;;;;9.33;100.00;98765.81;5033681;28;20569;-72
2024/01/24 03:07:27;;;;;;;2.40;1.20;;;;;;;9.42;100.00;98772.63;5033739;28;20212;-72
2024/01/24 03:09:54;;;;;;;2.87;1.10;;;;;;;9.25;100.00;98773.91;5034238;28;20217;-72
2024/01/24 03:12:20;;;;;;;1.60;0.90;;;;;;;9.24;100.00;98769.63;5033249;28;20244;-72
2024/01/24 03:14:46;;;;;;;2.73;1.17;;;;;;;9.42;100.00;98773.41;5033625;28;20210;-72
2024/01/24 03:17:13;;;;;;;2.67;1.17;;;;;;;9.49;100.00;98784.91;5033581;28;20213;-72
2024/01/24 03:19:39;;;;;;;3.10;1.07;;;;;;;9.46;100.00;98793.25;5033641;28;20222;-72
2024/01/24 03:22:05;;;;;;;1.73;0.93;;;;;;;9.57;100.00;98778.63;5033494;28;20205;-72
2024/01/24 03:24:32;;;;;;;2.57;0.90;;;;;;;9.57;100.00;98773.31;5033296;28;20237;-72
2024/01/24 03:26:58;;;;;;;3.90;0.80;;;;;;;9.68;100.00;98770.13;5033249;28;20671;-72
2024/01/24 03:29:24;;;;;;;4.03;1.27;;;;;;;9.81;100.00;98771.00;5037258;28;20617;-72
2024/01/24 03:31:51;;;;;;;3.23;1.10;;;;;;;9.79;100.00;98773.06;5037066;28;20581;-72
2024/01/24 03:34:17;;;;;;;2.83;0.93;;;;;;;9.82;100.00;98782.47;5037450;28;20206;-72
2024/01/24 03:36:43;;;;;;;2.60;0.73;;;;;;;9.65;100.00;98778.47;5037517;28;20201;-72
2024/01/24 03:39:10;;;;;;;2.17;0.90;;;;;;;9.81;100.00;98770.19;5037458;28;20208;-73
2024/01/24 03:41:37;;;;;;;3.17;0.90;;;;;;;9.82;100.00;98766.53;5037405;28;20300;-73
2024/01/24 03:44:05;;;;;;;2.57;0.97;;;;;;;9.78;100.00;98765.28;5037239;28;20236;-73
2024/01/24 03:46:31;;;;;;;2.90;1.00;;;;;;;9.81;100.00;98778.97;5037073;28;20212;-73
2024/01/24 03:48:58;;;;;;;5.50;1.10;;;;;;;9.78;100.00;98770.59;5037045;28;20570;-73
2024/01/24 03:51:25;;;;;;;4.33;1.10;;;;;;;9.77;100.00;98774.28;5036891;28;20214;-73
2024/01/24 03:53:51;;;;;;;3.67;1.10;;;;;;;9.85;100.00;98761.63;5037187;28;20653;-73
2024/01/24 03:56:18;;;;;;;2.03;0.93;;;;;;;9.81;100.00;98762.22;5036815;28;20214;-73
2024/01/24 03:58:44;;;;;;;2.37;1.10;;;;;;;9.84;100.00;98757.34;5037114;28;20210;-73
2024/01/24 04:01:11;;;;;;;4.30;1.17;;;;;;;9.86;100.00;98755.31;5037053;28;20232;-73
2024/01/24 04:03:37;;;;;;;1.77;0.80;;;;;;;9.86;100.00;98754.50;5036795;28;20237;-73
2024/01/24 04:06:04;;;;;;;4.03;1.30;;;;;;;9.80;100.00;98763.22;5036770;28;20210;-73
2024/01/24 04:08:30;;;;;;;2.63;0.90;;;;;;;9.85;100.00;98766.13;5036514;28;20348;-73
2024/01/24 04:10:56;;;;;;;5.50;1.37;;;;;;;9.98;100.00;98763.53;5036316;28;20692;-73
2024/01/24 04:13:23;;;;;;;3.33;0.90;;;;;;;10.02;100.00;98751.50;5036168;28;20563;-73
2024/01/24 04:15:49;;;;;;;2.53;0.80;;;;;;;9.95;100.00;98754.13;5036293;28;20566;-73
2024/01/24 04:18:15;;;;;;;4.43;1.20;;;;;;;9.94;100.00;98767.59;5036392;28;20212;-73
2024/01/24 04:20:42;;;;;;;3.57;1.13;;;;;;;9.89;100.00;98778.81;5036451;28;20206;-73
2024/01/24 04:23:08;;;;;;;2.63;1.13;;;;;;;9.98;100.00;98787.44;5036437;28;20229;-73
2024/01/24 04:25:35;;;;;;;3.57;1.10;;;;;;;9.97;100.00;98785.78;5036291;28;20222;-73
2024/01/24 04:28:01;;;;;;;5.63;1.20;;;;;;;9.94;100.00;98786.19;5036516;28;20206;-73
2024/01/24 04:30:28;;;;;;;2.43;1.30;;;;;;;9.95;100.00;98785.16;5036138;28;20212;-73
2024/01/24 04:32:54;;;;;;;3.50;1.10;;;;;;;9.92;100.00;98785.56;5036245;28;20226;-73
2024/01/24 04:35:20;;;;;;;4.10;1.30;;;;;;;9.91;100.00;98783.94;5033082;28;20264;-73
2024/01/24 04:37:47;;;;;;;3.07;1.33;;;;;;;9.98;100.00;98784.78;5014376;28;20246;-73
2024/01/24 04:40:13;;;;;;;3.13;1.00;;;;;;;9.97;100.00;98781.31;5017720;28;20207;-73
2024/01/24 04:42:40;;;;;;;2.63;1.00;;;;;;;9.96;100.00;98784.97;5027090;28;20230;-73
2024/01/24 04:45:06;;;;;;;3.67;1.20;;;;;;;10.13;100.00;98785.47;5027230;28;20690;-73
2024/01/24 04:47:33;;;;;;;5.13;1.47;;;;;;;10.15;100.00;98786.13;5026847;28;20213;-73
2024/01/24 04:49:59;;;;;;;2.43;0.97;;;;;;;10.16;100.00;98780.59;5027193;28;20207;-73
2024/01/24 04:52:25;;;;;;;3.00;1.03;;;;;;;10.19;100.00;98788.16;5027096;28;20226;-73
2024/01/24 04:54:52;;;;;;;1.23;1.00;;;;;;;10.07;100.00;98783.63;5027140;28;20712;-73
2024/01/24 04:57:18;;;;;;;3.87;1.37;;;;;;;10.02;100.00;98786.03;5027503;28;20217;-73
2024/01/24 04:59:45;;;;;;;2.37;1.10;;;;;;;10.04;100.00;98779.53;5027565;28;20284;-73
2024/01/24 05:02:11;;;;;;;4.80;1.20;;;;;;;10.05;100.00;98780.34;5026503;28;20230;-73
2024/01/24 05:04:37;;;;;;;4.00;1.20;;;;;;;10.06;100.00;98792.63;5027268;28;20222;-73
2024/01/24 05:07:04;;;;;;;4.00;1.23;;;;;;;10.14;100.00;98782.63;5026505;28;20212;-73
2024/01/24 05:09:30;;;;;;;2.83;1.07;;;;;;;10.18;100.00;98775.91;5026708;28;20214;-73
2024/01/24 05:11:56;;;;;;;3.87;1.10;;;;;;;10.30;100.00;98784.13;5026516;28;20620;-73
2024/01/24 05:14:23;;;;;;;3.77;1.10;;;;;;;10.33;100.00;98781.88;5026814;28;20571;-73
2024/01/24 05:16:49;;;;;;;2.20;0.90;;;;;;;10.50;100.00;98777.03;5026582;28;20678;-73
2024/01/24 05:19:16;;;;;;;2.33;1.10;;;;;;;10.54;100.00;98768.44;5026258;28;20609;-73
2024/01/24 05:21:43;;;;;;;2.90;1.30;;;;;;;10.84;100.00;98764.41;5026479;28;20218;-72
2024/01/24 05:24:11;;;;;;;2.93;1.17;;;;;;;11.25;100.00;98779.38;5026129;28;20236;-72
2024/01/24 05:26:38;;;;;;;5.93;1.17;;;;;;;11.29;100.00;98797.38;5026088;28;20218;-72
2024/01/24 05:29:07;;;;;;;1.77;0.90;;;;;;;11.23;100.00;98799.00;5026160;28;20204;-72
2024/01/24 05:31:34;;;;;;;1.13;1.00;;;;;;;11.26;100.00;98789.78;5026247;28;20208;-72
2024/01/24 05:34:02;;;;;;;2.20;1.10;;;;;;;11.30;100.00;98790.22;5025952;28;20763;-72
2024/01/24 05:36:29;;;;;;;1.47;1.00;;;;;;;11.35;100.00;98777.91;5026402;28;20279;-72
2024/01/24 05:38:55;;;;;;;4.20;1.10;;;;;;;11.32;100.00;98778.34;5025740;28;20212;-73
2024/01/24 05:41:22;;;;;;;1.90;1.00;;;;;;;11.32;100.00;98774.84;5026298;28;20212;-72
2024/01/24 05:43:48;;;;;;;2.83;1.00;;;;;;;11.42;100.00;98773.41;5025516;28;20270;-72
2024/01/24 05:46:14;;;;;;;3.03;0.93;;;;;;;11.34;100.00;98786.13;5025714;28;20206;-72
2024/01/24 05:48:41;;;;;;;1.97;0.90;;;;;;;11.27;100.00;98790.63;5025652;28;20213;-72
2024/01/24 05:51:07;;;;;;;3.37;1.00;;;;;;;11.33;100.00;98787.97;5024957;28;20212;-72
2024/01/24 05:53:34;;;;;;;4.23;1.37;;;;;;;11.23;100.00;98796.34;5025967;28;20222;-72
2024/01/24 05:56:00;;;;;;;2.10;1.00;;;;;;;11.22;100.00;98769.13;5026009;28;20222;-72
2024/01/24 05:58:27;;;;;;;3.50;1.10;;;;;;;11.24;100.00;98738.63;5025674;28;20287;-72
2024/01/24 06:00:53;;;;;;;3.10;0.93;;;;;;;11.15;100.00;98731.88;5025496;28;20210;-73
2024/01/24 06:03:20;;;;;;;3.23;1.20;;;;;;;11.10;100.00;98734.34;5026146;28;20260;-73
2024/01/24 06:05:46;;;;;;;2.30;0.90;;;;;;;11.15;100.00;98745.19;5025454;28;20212;-73
2024/01/24 06:08:13;;;;;;;3.10;0.80;;;;;;;11.23;100.00;98736.16;5025055;28;20209;-72
2024/01/24 06:10:39;;;;;;;2.20;1.03;;;;;;;11.30;100.00;98739.66;5025522;28;20210;-72
2024/01/24 06:13:05;;;;;;;2.97;1.23;;;;;;;11.27;100.00;98748.03;5025118;28;20257;-73
2024/01/24 06:15:32;;;;;;;3.60;1.37;;;;;;;11.40;100.00;98759.47;5025320;28;20213;-72
2024/01/24 06:17:58;;;;;;;2.23;1.07;;;;;;;11.36;100.00;98760.94;5025084;28;20684;-72
2024/01/24 06:20:24;;;;;;;2.70;0.90;;;;;;;11.27;100.00;98772.81;5025431;28;20202;-72
2024/01/24 06:22:51;;;;;;;2.03;0.70;;;;;;;11.24;100.00;98765.22;5025132;28;20265;-73
2024/01/24 06:25:21;;;;;;;2.60;0.87;;;;;;;11.35;100.00;98766.47;5024892;28;20270;-73
2024/01/24 06:27:51;;;;;;;1.63;0.80;;;;;;;11.35;100.00;98774.44;5024795;28;20209;-73
2024/01/24 06:30:23;;;;;;;3.20;0.90;;;;;;;11.42;100.00;98781.41;5025537;28;20239;-73
2024/01/24 06:32:55;;;;;;;0.80;0.80;;;;;;;11.50;100.00;98783.84;5010286;28;20231;-73
2024/01/24 06:35:23;;;;;;;1.20;0.80;;;;;;;11.50;100.00;98785.69;5024742;28;20208;-73
2024/01/24 06:37:56;;;;;;;2.57;1.00;;;;;;;11.34;100.00;98780.81;5024855;28;20211;-73
2024/01/24 06:40:26;;;;;;;2.20;0.90;;;;;;;11.38;100.00;98768.69;5024851;28;20228;-73
2024/01/24 06:42:54;;;;;;;2.43;0.70;;;;;;;11.53;100.00;98771.97;5024679;28;20242;-73
2024/01/24 06:45:21;;;;;;;1.27;0.50;;;;;;;11.59;100.00;98771.97;5024075;28;20603;-73
2024/01/24 06:47:49;;;;;;;1.17;0.60;;;;;;;11.65;100.00;98762.31;5024327;28;20539;-73
2024/01/24 06:50:17;;;;;;;1.67;0.60;;;;;;;11.67;100.00;98765.63;5024758;28;20723;-73
2024/01/24 06:52:44;;;;;;;2.07;0.70;;;;;;;11.52;100.00;98751.69;5024954;28;20229;-72
2024/01/24 06:55:10;;;;;;;1.27;0.70;;;;;;;11.66;100.00;98754.13;5024482;28;20209;-73
2024/01/24 06:57:36;;;;;;;1.67;0.70;;;;;;;11.55;100.00;98752.09;5025007;28;20216;-73
2024/01/24 07:00:05;;;;;;;2.40;0.70;;;;;;;11.41;100.00;98752.31;5024894;28;20212;-73
2024/01/24 07:02:31;;;;;;;2.57;0.60;;;;;;;11.38;100.00;98755.38;5024333;28;20255;-73
2024/01/24 07:04:58;;;;;;;1.33;0.73;;;;;;;11.46;100.00;98752.50;5024429;28;20304;-73
2024/01/24 07:07:25;;;;;;;2.37;0.70;;;;;;;11.54;100.00;98754.97;5024799;28;20825;-73
2024/01/24 07:09:51;;;;;;;1.10;0.70;;;;;;;11.42;100.00;98740.63;5024707;28;20245;-73
2024/01/24 07:12:20;;;;;;;0.63;0.60;;;;;;;11.44;100.00;98735.94;5024714;28;20227;-73
2024/01/24 07:14:48;;;;;;;1.37;0.80;;;;;;;11.39;100.00;98733.06;5024298;28;20204;-73
2024/01/24 07:17:14;;;;;;;1.33;0.60;;;;;;;11.43;100.00;98726.31;5024194;28;20213;-73
2024/01/24 07:19:40;;;;;;;3.00;1.00;;;;;;;11.46;100.00;98720.56;5023922;28;20213;-73
2024/01/24 07:22:07;;;;;;;2.43;0.70;;;;;;;11.37;100.00;98724.47;5023804;28;20233;-73
2024/01/24 07:24:33;;;;;;;1.43;0.70;;;;;;;11.44;100.00;98728.75;5023374;28;20235;-73
2024/01/24 07:27:01;;;;;;;1.13;0.70;;;;;;;11.46;100.00;98733.88;5024522;28;20626;-73
2024/01/24 07:29:27;;;;;;;1.87;0.60;;;;;;;11.58;100.00;98724.22;5023885;28;20223;-73
2024/01/24 07:31:54;;;;;;;2.07;0.77;;;;;;;11.56;100.00;98732.41;5024195;28;20245;-72
2024/01/24 07:34:20;;;;;;;0.90;0.60;;;;;;;11.52;100.00;98735.72;5023619;28;20205;-73
2024/01/24 07:36:46;;;;;;;1.17;0.60;;;;;;;11.58;100.00;98729.56;5024206;28;20216;-73
2024/01/24 07:39:13;;;;;;;2.30;0.70;;;;;;;11.65;100.00;98731.19;5024405;28;20209;-73
2024/01/24 07:41:39;;;;;;;1.03;0.60;;;;;;;11.71;100.00;98726.88;5028725;28;20230;-73
2024/01/24 07:44:05;;;;;;;1.10;0.67;;;;;;;11.64;100.00;98729.56;5032332;28;20230;-73
2024/01/24 07:46:33;;;;;;;1.00;0.80;;;;;;;11.81;100.00;98725.41;5032846;28;20202;-74
2024/01/24 07:48:59;;;;;;;0.53;0.40;;;;;;;11.71;100.00;98725.03;5032714;28;20218;-73
2024/01/24 07:51:26;;;;;;;1.47;0.70;;;;;;;11.77;100.00;98748.19;5032736;28;20205;-73
2024/01/24 07:53:52;;;;;;;0.90;0.70;;;;;;;11.78;100.00;98747.16;5031946;28;20723;-73
2024/01/24 07:56:18;;;;;;;1.00;0.60;;;;;;;11.92;100.00;98748.75;5032922;28;20560;-73
2024/01/24 07:58:45;;;;;;;0.83;0.57;;;;;;;12.00;100.00;98735.19;5033292;28;20215;-73
2024/01/24 08:01:11;;;;;;;2.40;0.50;;;;;;;11.98;100.00;98742.56;5032911;28;20205;-73
2024/01/24 08:03:38;;;;;;;2.10;0.60;;;;;;;12.08;100.00;98760.78;5032550;28;20228;-74
2024/01/24 08:06:05;;;;;;;1.37;0.67;;;;;;;12.10;100.00;98758.69;5032219;28;20235;-73
2024/01/24 08:08:31;;;;;;;0.60;0.50;;;;;;;12.04;100.00;98755.06;5032420;28;20208;-73
2024/01/24 08:10:57;;;;;;;0.73;0.73;;;;;;;12.09;100.00;98759.75;5032363;28;20233;-73
2024/01/24 08:13:24;;;;;;;0.87;0.60;;;;;;;12.18;100.00;98772.63;5032494;28;20229;-73
2024/01/24 08:15:50;;;;;;;1.47;0.63;;;;;;;12.13;100.00;98775.13;5035353;28;20206;-73
2024/01/24 08:18:16;;;;;;;1.33;0.70;;;;;;;12.14;100.00;98773.25;5036153;28;20211;-73
2024/01/24 08:20:43;;;;;;;0.80;0.60;;;;;;;12.15;100.00;98770.38;5036091;28;20313;-73
2024/01/24 08:23:09;;;;;;;1.03;0.50;;;;;;;12.22;100.00;98771.19;5036067;28;20711;-72
2024/01/24 08:25:35;;;;;;;1.37;0.70;;;;;;;12.24;100.00;98774.44;5035588;28;20703;-73
2024/01/24 08:28:02;;;;;;;0.53;0.50;;;;;;;12.37;100.00;98785.03;5035515;28;20667;-73
2024/01/24 08:30:28;;;;;;;0.43;0.40;;;;;;;12.39;100.00;98764.31;5035628;28;20570;-72
2024/01/24 08:32:54;;;;;;;0.43;0.43;;;;;;;12.44;100.00;98775.16;5035284;28;20595;-72
2024/01/24 08:35:21;;;;;;;0.30;0.30;;;;;;;12.45;100.00;98765.31;5035168;28;20572;-73
2024/01/24 08:37:47;;;;;;;0.50;0.50;;;;;;;12.40;100.00;98773.13;5035394;28;20672;-73
2024/01/24 08:40:15;;;;;;;0.43;0.43;;;;;;;12.50;100.00;98781.50;5035926;28;20206;-73
2024/01/24 08:42:43;;;;;;;0.50;0.40;;;;;;;12.53;100.00;98791.75;5035794;28;20304;-73
2024/01/24 08:45:10;;;;;;;0.60;0.60;;;;;;;12.57;100.00;98787.63;5035768;28;20272;-73
2024/01/24 08:47:37;;;;;;;0.80;0.50;;;;;;;12.46;100.00;98793.59;5035855;28;20209;-73
2024/01/24 08:50:05;;;;;;;1.90;0.40;;;;;;;12.46;100.00;98802.44;5035609;28;20206;-73
2024/01/24 08:52:32;;;;;;;0.30;0.30;;;;;;;12.56;100.00;98801.97;5035730;28;20236;-73
2024/01/24 08:54:58;;;;;;;0.30;0.30;;;;;;;12.54;100.00;98802.19;5035740;28;20202;-73
2024/01/24 08:57:25;;;;;;;0.60;0.50;;;;;;;12.58;100.00;98797.25;5035364;28;20210;-73
2024/01/24 08:59:53;;;;;;;1.50;0.33;;;;;;;12.63;100.00;98806.25;5035387;28;20546;-73
2024/01/24 09:02:19;;;;;;;1.67;0.40;;;;;;;12.56;100.00;98808.13;5035625;28;20225;-74
2024/01/24 09:04:46;;;;;;;0.70;0.40;;;;;;;12.61;100.00;98802.97;5035355;28;20583;-73
2024/01/24 09:07:14;;;;;;;0.40;0.33;;;;;;;12.70;100.00;98795.56;5035596;28;20221;-71
2024/01/24 09:09:41;;;;;;;0.60;0.43;;;;;;;12.70;100.00;98815.03;5035616;28;20296;-72
2024/01/24 09:12:07;;;;;;;1.03;0.30;;;;;;;12.74;100.00;98816.22;5035019;28;20792;-73
2024/01/24 09:14:34;;;;;;;1.30;0.40;;;;;;;12.73;100.00;98825.28;5034948;28;20664;-71
2024/01/24 09:17:01;;;;;;;0.70;0.30;;;;;;;12.74;100.00;98824.25;5035266;28;20206;-72
2024/01/24 09:19:27;;;;;;;0.40;0.40;;;;;;;12.71;100.00;98819.31;5035287;28;20308;-72
2024/01/24 09:21:54;;;;;;;0.40;0.40;;;;;;;12.73;100.00;98819.94;5035191;28;20220;-72
2024/01/24 09:24:20;;;;;;;0.40;0.40;;;;;;;12.82;100.00;98818.66;5035056;28;20206;-73
2024/01/24 09:26:46;;;;;;;0.40;0.40;;;;;;;12.78;100.00;98809.44;5035077;28;20303;-71
2024/01/24 09:29:13;;;;;;;0.40;0.33;;;;;;;12.76;100.00;98816.84;5035070;28;20220;-71
2024/01/24 09:31:43;;;;;;;0.43;0.30;;;;;;;12.82;100.00;98824.00;5035775;28;20267;-72
2024/01/24 09:34:13;;;;;;;0.30;0.30;;;;;;;12.71;100.00;98823.84;5035100;28;20282;-72
2024/01/24 09:36:39;;;;;;;0.90;0.40;;;;;;;12.63;100.00;98819.59;5034931;28;20573;-74
2024/01/24 09:39:07;;;;;;;0.60;0.40;;;;;;;12.63;100.00;98811.59;5034903;28;20232;-72
2024/01/24 09:41:41;;;;;;;0.30;0.30;;;;;;;12.62;100.00;98819.81;5034746;28;20623;-74
2024/01/24 09:44:09;;;;;;;0.20;0.20;;;;;;;12.56;100.00;98815.28;5034812;28;20231;-73
2024/01/24 09:46:36;;;;;;;0.30;0.30;;;;;;;12.50;100.00;98803.66;5034129;28;20225;-73
2024/01/24 09:49:03;;;;;;;0.30;0.30;;;;;;;12.52;100.00;98795.44;5034472;28;20621;-73
2024/01/24 09:51:34;;;;;;;0.40;0.40;;;;;;;12.48;100.00;98796.91;5035254;28;20212;-73
2024/01/24 09:54:06;;;;;;;0.43;0.40;;;;;;;12.54;100.00;98801.38;5033383;28;20222;-73
2024/01/24 09:56:38;;;;;;;0.40;0.30;;;;;;;12.49;100.00;98793.19;5034477;28;20770;-74
2024/01/24 09:59:06;;;;;;;0.40;0.30;;;;;;;12.51;100.00;98791.13;5034453;28;20190;-74
2024/01/24 10:01:35;;;;;;;0.30;0.30;;;;;;;12.46;100.00;98801.59;5034634;28;20212;-73
2024/01/24 10:04:03;;;;;;;0.33;0.33;;;;;;;12.53;100.00;98797.88;5034400;28;20282;-73
2024/01/24 10:06:30;;;;;;;0.20;0.20;;;;;;;12.54;100.00;98804.88;5034156;28;20818;-74
2024/01/24 10:08:57;;;;;;;0.33;0.30;;;;;;;12.62;100.00;98799.25;5034361;28;20210;-74
2024/01/24 10:11:25;;;;;;;0.43;0.33;;;;;;;12.72;100.00;98799.63;5034413;28;20205;-74
2024/01/24 10:13:57;;;;;;;0.40;0.30;;;;;;;12.81;100.00;98810.88;5034220;28;20225;-73
2024/01/24 10:16:27;;;;;;;0.30;0.30;;;;;;;12.93;100.00;98809.94;5033720;28;20648;-73
2024/01/24 10:18:57;;;;;;;0.30;0.30;;;;;;;13.04;100.00;98814.66;5034072;28;20205;-73
2024/01/24 10:21:25;;;;;;;0.97;0.30;;;;;;;13.00;100.00;98809.94;5033754;28;20697;-73
2024/01/24 10:23:55;;;;;;;0.30;0.30;;;;;;;12.95;100.00;98807.91;5033564;28;20230;-73
2024/01/24 10:26:21;;;;;;;0.20;0.20;;;;;;;12.99;100.00;98805.66;5033408;28;20230;-73
2024/01/24 10:28:50;;;;;;;0.20;0.20;;;;;;;12.96;100.00;98803.38;5033739;28;20216;-73
2024/01/24 10:31:19;;;;;;;0.23;0.23;;;;;;;13.05;100.00;98808.28;5034590;28;20206;-72
2024/01/24 10:33:48;;;;;;;0.30;0.30;;;;;;;13.12;100.00;98809.03;5033189;28;20298;-72
2024/01/24 10:36:15;;;;;;;0.30;0.30;;;;;;;13.16;100.00;98818.25;5033739;28;20202;-73
2024/01/24 10:38:48;;;;;;;0.57;0.30;;;;;;;13.16;100.00;98828.91;5033246;28;20214;-73
2024/01/24 10:41:16;;;;;;;0.87;0.30;;;;;;;13.12;100.00;98827.72;5033430;28;20553;-73
2024/01/24 10:43:52;;;;;;;0.30;0.30;;;;;;;13.19;100.00;98833.84;5033167;28;20241;-73
2024/01/24 10:46:19;;;;;;;0.30;0.30;;;;;;;13.14;100.00;98833.66;5033640;28;20213;-73
2024/01/24 10:48:46;;;;;;;0.30;0.30;;;;;;;13.13;100.00;98847.22;5033687;28;20205;-74
2024/01/24 10:51:12;;;;;;;0.30;0.30;;;;;;;13.32;100.00;98831.06;5033280;28;20665;-74
2024/01/24 10:53:40;;;;;;;0.23;0.23;;;;;;;13.52;100.00;98838.94;5033086;28;20265;-74
2024/01/24 10:56:08;;;;;;;0.20;0.20;;;;;;;13.60;100.00;98833.28;5033605;28;20232;-74
2024/01/24 10:58:35;;;;;;;0.20;0.20;;;;;;;13.55;100.00;98817.94;5033426;28;20293;-73
2024/01/24 11:01:01;;;;;;;0.77;0.37;;;;;;;13.53;100.00;98822.69;5033543;28;20202;-73
2024/01/24 11:03:28;;;;;;;0.23;0.23;;;;;;;13.49;100.00;98829.50;5033516;28;20308;-74
2024/01/24 11:05:57;;;;;;;0.20;0.20;;;;;;;13.46;100.00;98845.13;5033196;28;20222;-74
2024/01/24 11:08:32;;;;;;;0.20;0.20;;;;;;;13.38;100.00;98840.88;5033513;28;20222;-74
2024/01/24 11:11:05;;;;;;;0.27;0.27;;;;;;;13.27;100.00;98841.59;5033207;28;20212;-74
2024/01/24 11:13:35;;;;;;;0.30;0.30;;;;;;;13.39;100.00;98836.38;5033059;28;20233;-73
2024/01/24 11:16:01;;;;;;;0.40;0.40;;;;;;;13.29;100.00;98849.38;5033034;28;20665;-74
2024/01/24 11:18:31;;;;;;;0.53;0.30;;;;;;;13.27;100.00;98852.28;5033110;28;20217;-74
2024/01/24 11:21:00;;;;;;;0.50;0.50;;;;;;;13.17;100.00;98846.59;5032707;28;20668;-73
2024/01/24 11:23:44;;;;;;;0.40;0.40;;;;;;;12.84;100.00;98842.47;5033236;28;20226;-74
2024/01/24 11:26:18;;;;;;;0.20;0.20;;;;;;;12.66;100.00;98845.03;5032682;28;20267;-74
2024/01/24 11:28:45;;;;;;;0.30;0.30;;;;;;;12.48;100.00;98856.38;5032898;28;20633;-74